Clyde, Illinois
Current Conditions -  °F | °C
As of 5:55 AM on Thursday 27 Nov 2014 (Local Time) from KSQI Reporting Station
Overcast Overcast  
Wind Chill: 16°   Ceiling: 4300
Heat Index: 25°   Visibility: 10mi
Dew Point: 18°   Wind: 8mph
Humidity: 74%   Direction: 300°WNW
Pressure: 30.33"   Gusts: NA
Location:  41.8285°N, 89.9656°W
Report Text: KSQI 271155Z 30007KT 10SM FEW027 OVC043 M04/M08 A3033 RMK AO1 11040 21070 52014
Loading
Personal Weather Stations






























Interactive Weather Map New forecast layout! Learn more

10-Day Weather Forecast

Advertisements
Track Severe Weather on mobile